Time;durP1;ratioP1;P1;durP2;ratioP2;P2;SDS_P1;SDS_P2;PMS_P1;PMS_P2;Temp;Humidity;BMP_temperature;BMP_pressure;BME280_temperature;BME280_humidity;BME280_pressure;Samples;Min_cycle;Max_cycle;Signal;HPM_P1;HPM_P2
2022/07/28 00:00:16;;;;;;;4.47;4.07;;;;;;;21.05;58.30;95581.50;4899101;29;20751;-84
2022/07/28 00:02:43;;;;;;;6.18;3.72;;;;;;;21.07;58.74;95570.78;4899377;29;20254;-85
2022/07/28 00:05:10;;;;;;;4.32;3.95;;;;;;;21.18;57.98;95569.88;4899730;29;20235;-84
2022/07/28 00:07:37;;;;;;;4.43;3.67;;;;;;;21.19;58.26;95571.44;4899773;29;20210;-84
2022/07/28 00:10:04;;;;;;;4.55;4.15;;;;;;;21.17;58.10;95569.06;4899217;29;20267;-84
2022/07/28 00:12:30;;;;;;;4.60;4.20;;;;;;;21.25;57.80;95563.47;4899325;29;20249;-84
2022/07/28 00:14:57;;;;;;;4.72;4.32;;;;;;;21.11;58.64;95556.19;4900466;29;20251;-84
2022/07/28 00:17:24;;;;;;;5.13;4.72;;;;;;;21.03;58.91;95560.00;4900470;29;20203;-85
2022/07/28 00:19:51;;;;;;;4.43;4.13;;;;;;;20.95;58.89;95550.75;4900139;29;20210;-84
2022/07/28 00:22:17;;;;;;;4.30;3.90;;;;;;;20.99;58.76;95546.59;4899159;29;20210;-84
2022/07/28 00:24:44;;;;;;;4.95;4.55;;;;;;;20.96;59.41;95554.16;4900189;29;20233;-85
2022/07/28 00:27:10;;;;;;;5.60;4.72;;;;;;;21.02;59.06;95550.56;4900557;29;20598;-84
2022/07/28 00:29:36;;;;;;;4.80;4.40;;;;;;;21.02;59.06;95547.94;4899568;29;20210;-84
2022/07/28 00:32:03;;;;;;;5.22;4.32;;;;;;;21.08;58.96;95548.81;4899354;29;20207;-84
2022/07/28 00:34:31;;;;;;;6.28;4.53;;;;;;;21.10;59.22;95544.91;4899010;29;20239;-85
2022/07/28 00:36:57;;;;;;;5.05;4.40;;;;;;;21.14;58.92;95542.59;4899059;29;20205;-85
2022/07/28 00:39:23;;;;;;;4.90;4.00;;;;;;;21.20;58.36;95539.81;4899633;29;20206;-85
2022/07/28 00:41:50;;;;;;;4.50;4.13;;;;;;;21.19;58.70;95534.78;4898412;29;20207;-85
2022/07/28 00:44:16;;;;;;;4.30;4.00;;;;;;;21.21;58.96;95527.50;4898777;29;20247;-85
2022/07/28 00:46:43;;;;;;;5.28;4.75;;;;;;;21.03;59.72;95539.06;4898867;29;20223;-84
2022/07/28 00:49:10;;;;;;;4.72;4.43;;;;;;;20.89;60.04;95533.38;4897462;29;20217;-84
2022/07/28 00:51:39;;;;;;;5.00;4.47;;;;;;;20.96;59.71;95528.00;4898056;29;20251;-84
2022/07/28 00:54:06;;;;;;;4.63;4.22;;;;;;;20.89;60.54;95532.59;4898655;29;20650;-84
2022/07/28 00:56:34;;;;;;;5.53;4.40;;;;;;;21.01;60.22;95520.97;4898268;29;20250;-83
2022/07/28 00:59:00;;;;;;;4.78;4.38;;;;;;;20.95;59.82;95521.16;4897873;29;20202;-84
2022/07/28 01:01:27;;;;;;;4.82;4.43;;;;;;;20.84;60.38;95517.63;4897509;29;20203;-84
2022/07/28 01:03:55;;;;;;;4.80;4.40;;;;;;;20.71;61.15;95515.34;4898130;29;20666;-84
2022/07/28 01:06:48;;;;;;;6.68;5.00;;;;;;;20.65;61.37;95511.88;4898988;29;20230;-85
2022/07/28 01:09:25;;;;;;;6.15;4.97;;;;;;;20.58;61.72;95506.03;4898326;29;20622;-85
2022/07/28 01:12:04;;;;;;;5.45;4.95;;;;;;;20.59;61.79;95501.59;4897561;29;20206;-85
2022/07/28 01:14:36;;;;;;;5.07;4.68;;;;;;;20.67;61.13;95501.16;4898000;29;20298;-84
2022/07/28 01:17:09;;;;;;;5.45;4.95;;;;;;;20.69;61.35;95507.75;4899102;29;20203;-85
2022/07/28 01:19:41;;;;;;;6.45;5.38;;;;;;;20.55;62.10;95495.25;4898444;29;20214;-85
2022/07/28 01:22:12;;;;;;;5.60;5.00;;;;;;;20.52;61.94;95493.13;4898220;29;20731;-85
2022/07/28 01:24:49;;;;;;;5.68;5.18;;;;;;;20.44;62.84;95491.69;4898252;29;20226;-85
2022/07/28 01:27:29;;;;;;;5.15;4.75;;;;;;;20.47;62.89;95490.41;4898710;29;20729;-85
2022/07/28 01:30:04;;;;;;;5.30;4.90;;;;;;;20.59;62.17;95484.03;4880553;29;20215;-84
2022/07/28 01:32:38;;;;;;;5.80;5.30;;;;;;;20.58;62.38;95482.50;4879650;29;20648;-85
2022/07/28 01:35:12;;;;;;;5.90;5.40;;;;;;;20.54;62.54;95484.00;4898623;29;20210;-84
2022/07/28 01:37:43;;;;;;;5.72;5.22;;;;;;;20.51;62.98;95481.84;4898549;29;20209;-85
2022/07/28 01:40:13;;;;;;;6.07;5.40;;;;;;;20.49;62.83;95481.31;4898901;29;20222;-84
2022/07/28 01:42:43;;;;;;;6.60;5.60;;;;;;;20.45;63.49;95476.78;4897354;29;20234;-84
2022/07/28 01:45:12;;;;;;;5.93;5.43;;;;;;;20.41;63.87;95479.09;4899590;29;20632;-85
2022/07/28 01:47:43;;;;;;;6.00;5.53;;;;;;;20.27;64.64;95480.44;4898020;29;20698;-85
2022/07/28 01:50:11;;;;;;;6.82;5.72;;;;;;;20.35;64.26;95472.19;4897974;29;20500;-84
2022/07/28 01:52:40;;;;;;;6.28;5.78;;;;;;;20.32;63.97;95478.69;4898567;29;20258;-84
2022/07/28 01:55:08;;;;;;;6.10;5.50;;;;;;;20.29;64.49;95479.16;4899648;29;20207;-84
2022/07/28 01:57:36;;;;;;;6.40;5.90;;;;;;;20.12;65.48;95480.22;4898038;29;20218;-84
2022/07/28 02:00:06;;;;;;;6.30;5.70;;;;;;;20.23;64.92;95474.88;4897919;29;20217;-84
2022/07/28 02:02:33;;;;;;;6.60;6.10;;;;;;;20.18;65.56;95476.66;4897896;29;20764;-84
2022/07/28 02:05:02;;;;;;;6.20;5.70;;;;;;;20.14;65.59;95478.94;4897871;29;20199;-84
2022/07/28 02:07:30;;;;;;;7.47;6.85;;;;;;;20.11;65.65;95470.78;4897759;29;20219;-84
2022/07/28 02:09:58;;;;;;;6.50;6.00;;;;;;;20.08;66.71;95474.66;4879926;29;20208;-85
2022/07/28 02:12:26;;;;;;;6.80;6.20;;;;;;;20.08;66.58;95477.28;4891100;29;20251;-84
2022/07/28 02:14:54;;;;;;;6.93;6.22;;;;;;;20.15;66.43;95470.06;4898184;29;20215;-84
2022/07/28 02:17:25;;;;;;;9.23;6.90;;;;;;;20.20;66.37;95471.97;4898013;29;20687;-84
2022/07/28 02:19:52;;;;;;;9.10;6.70;;;;;;;20.08;66.46;95468.63;4897288;29;20241;-85
2022/07/28 02:22:21;;;;;;;7.68;6.97;;;;;;;19.83;67.58;95467.19;4896335;29;20548;-84
2022/07/28 02:24:48;;;;;;;7.80;7.10;;;;;;;19.82;67.73;95457.00;4898408;29;20218;-85
2022/07/28 02:27:19;;;;;;;7.20;6.55;;;;;;;19.86;67.84;95460.72;4896903;29;20226;-84
2022/07/28 02:29:52;;;;;;;9.05;6.57;;;;;;;19.82;68.38;95462.25;4897894;29;20262;-84
2022/07/28 02:32:26;;;;;;;7.85;7.18;;;;;;;19.95;67.26;95460.09;4896085;29;20199;-84
2022/07/28 02:34:53;;;;;;;7.50;6.80;;;;;;;19.97;67.54;95455.44;4898048;29;20202;-84
2022/07/28 02:37:22;;;;;;;7.43;6.82;;;;;;;20.04;67.28;95460.47;4897876;29;20222;-84
2022/07/28 02:39:56;;;;;;;7.32;6.72;;;;;;;20.00;67.60;95459.38;4897729;29;20199;-84
2022/07/28 02:42:32;;;;;;;7.95;7.25;;;;;;;19.87;68.34;95457.88;4896091;29;20210;-84
2022/07/28 02:45:01;;;;;;;7.65;6.95;;;;;;;19.88;67.52;95454.22;4897512;29;20247;-85
2022/07/28 02:47:31;;;;;;;7.43;6.80;;;;;;;19.87;68.24;95459.69;4897038;29;20230;-84
2022/07/28 02:50:02;;;;;;;9.35;7.15;;;;;;;19.94;67.83;95461.13;4897499;29;20331;-84
2022/07/28 02:52:31;;;;;;;7.57;6.82;;;;;;;19.99;67.87;95448.13;4896505;29;20207;-84
2022/07/28 02:54:59;;;;;;;8.40;7.60;;;;;;;19.87;68.47;95455.25;4896951;29;20702;-84
2022/07/28 02:57:27;;;;;;;7.88;7.07;;;;;;;19.78;68.39;95451.47;4897160;29;20924;-84
2022/07/28 02:59:55;;;;;;;7.45;6.95;;;;;;;19.81;68.75;95456.22;4897974;29;20215;-84
2022/07/28 03:02:22;;;;;;;8.02;7.38;;;;;;;19.79;68.22;95457.47;4896454;29;20203;-85
2022/07/28 03:05:00;;;;;;;7.78;7.07;;;;;;;19.83;68.32;95458.56;4897841;29;20210;-84
2022/07/28 03:07:27;;;;;;;7.75;7.05;;;;;;;19.79;68.87;95463.50;4897778;29;20222;-84
2022/07/28 03:09:56;;;;;;;8.05;7.28;;;;;;;19.78;68.75;95469.75;4898163;29;20624;-84
2022/07/28 03:12:22;;;;;;;7.10;6.50;;;;;;;19.79;69.04;95467.94;4899084;29;20261;-84
2022/07/28 03:14:48;;;;;;;8.27;7.53;;;;;;;19.67;69.77;95465.38;4901321;29;20258;-85
2022/07/28 03:17:15;;;;;;;8.48;7.68;;;;;;;19.47;71.13;95470.22;4900387;29;20198;-84
2022/07/28 03:19:42;;;;;;;7.93;7.07;;;;;;;19.50;70.89;95478.41;4901736;29;20615;-84
2022/07/28 03:22:09;;;;;;;8.25;7.45;;;;;;;19.50;70.11;95473.19;4900892;29;20269;-84
2022/07/28 03:24:37;;;;;;;7.60;6.90;;;;;;;19.56;69.82;95474.06;4900752;29;20290;-84
2022/07/28 03:27:13;;;;;;;7.95;7.07;;;;;;;19.52;70.04;95478.19;4901509;29;20219;-85
2022/07/28 03:29:42;;;;;;;9.60;6.93;;;;;;;19.51;70.34;95477.38;4901033;29;20214;-84
2022/07/28 03:32:09;;;;;;;8.52;7.68;;;;;;;19.50;70.28;95475.00;4899875;29;20274;-84
2022/07/28 03:34:36;;;;;;;8.85;7.78;;;;;;;19.36;71.13;95481.50;4900478;29;20242;-85
2022/07/28 03:37:07;;;;;;;8.43;7.63;;;;;;;19.36;71.16;95481.50;4900691;29;20207;-84
2022/07/28 03:39:39;;;;;;;7.57;6.95;;;;;;;19.39;70.89;95473.22;4900840;29;20210;-84
2022/07/28 03:42:09;;;;;;;7.53;6.93;;;;;;;19.39;71.19;95483.66;4899926;29;20782;-84
2022/07/28 03:44:38;;;;;;;7.82;7.13;;;;;;;19.44;71.08;95481.91;4900023;29;20310;-84
2022/07/28 03:47:04;;;;;;;7.90;7.30;;;;;;;19.39;71.23;95476.63;4899813;29;20234;-85
2022/07/28 03:49:31;;;;;;;5.43;4.88;;;;;;;19.71;74.24;95476.16;4898053;29;20206;-85
2022/07/28 03:51:57;;;;;;;6.72;6.13;;;;;;;19.91;71.67;95474.66;4897509;29;20215;-85
2022/07/28 03:54:24;;;;;;;7.75;7.05;;;;;;;19.94;69.42;95474.19;4897583;29;20230;-85
2022/07/28 03:56:50;;;;;;;6.75;6.15;;;;;;;19.98;71.99;95471.91;4898042;29;20206;-87
2022/07/28 03:59:19;;;;;;;7.55;6.68;;;;;;;19.86;69.25;95469.34;4900612;29;20568;-84
2022/07/28 04:01:45;;;;;;;7.93;7.22;;;;;;;19.78;69.20;95472.38;4900037;29;20199;-85
2022/07/28 04:04:12;;;;;;;7.55;6.95;;;;;;;19.67;69.77;95463.56;4900369;29;20233;-85
2022/07/28 04:06:38;;;;;;;7.63;6.95;;;;;;;19.62;69.82;95476.56;4900708;29;20234;-85
2022/07/28 04:09:04;;;;;;;8.05;6.82;;;;;;;19.48;70.67;95471.81;4901577;29;20294;-83
2022/07/28 04:11:31;;;;;;;7.35;6.65;;;;;;;19.40;71.47;95467.75;4899801;29;20214;-83
2022/07/28 04:13:57;;;;;;;9.90;7.32;;;;;;;19.29;71.60;95473.81;4887328;29;20238;-82
2022/07/28 04:16:25;;;;;;;7.45;6.72;;;;;;;19.30;71.50;95472.78;4920894;29;20210;-83
2022/07/28 04:18:52;;;;;;;7.45;6.85;;;;;;;19.33;71.56;95480.16;4920241;29;20217;-82
2022/07/28 04:21:18;;;;;;;7.25;6.55;;;;;;;19.40;71.19;95482.63;4900821;29;20230;-84
2022/07/28 04:23:44;;;;;;;6.75;6.25;;;;;;;19.25;72.11;95476.09;4899970;29;20235;-83
2022/07/28 04:26:11;;;;;;;7.50;6.90;;;;;;;19.25;72.04;95478.69;4900649;29;20650;-83
2022/07/28 04:28:37;;;;;;;7.43;6.72;;;;;;;19.21;72.77;95475.00;4901092;29;20227;-85
2022/07/28 04:31:03;;;;;;;8.15;6.70;;;;;;;19.18;72.52;95479.88;4901801;29;20206;-85
2022/07/28 04:33:31;;;;;;;7.90;7.10;;;;;;;19.18;72.87;95477.28;4900024;28;20561;-85
2022/07/28 04:35:59;;;;;;;7.50;6.90;;;;;;;19.16;72.73;95492.38;4902121;29;20547;-85
2022/07/28 04:38:26;;;;;;;7.15;6.55;;;;;;;19.15;72.83;95486.34;4901460;29;20262;-84
2022/07/28 04:40:54;;;;;;;8.07;6.80;;;;;;;19.13;72.93;95480.56;4902972;29;20210;-84
2022/07/28 04:43:21;;;;;;;7.43;6.75;;;;;;;19.11;72.95;95481.81;4888783;28;20269;-86
2022/07/28 04:45:49;;;;;;;7.68;6.43;;;;;;;19.20;72.85;95481.25;4895412;29;20242;-85
2022/07/28 04:48:16;;;;;;;7.03;6.32;;;;;;;19.24;72.71;95478.97;4895263;29;20711;-85
2022/07/28 04:50:44;;;;;;;8.38;7.53;;;;;;;19.15;73.04;95478.53;4896227;29;20668;-84
2022/07/28 04:53:11;;;;;;;6.95;6.32;;;;;;;19.10;73.38;95482.84;4888957;29;20269;-85
2022/07/28 04:55:38;;;;;;;7.53;6.82;;;;;;;19.03;74.08;95490.03;4909007;29;20694;-84
2022/07/28 04:58:04;;;;;;;7.82;7.10;;;;;;;19.01;74.12;95490.25;4901083;29;20226;-84
2022/07/28 05:00:31;;;;;;;8.07;6.78;;;;;;;19.04;74.58;95489.00;4900747;29;20199;-83
2022/07/28 05:02:58;;;;;;;7.30;6.70;;;;;;;19.04;74.06;95489.81;4900987;29;20265;-83
2022/07/28 05:05:24;;;;;;;7.82;6.50;;;;;;;19.12;74.71;95489.44;4900078;29;20230;-84
2022/07/28 05:07:53;;;;;;;7.18;5.90;;;;;;;19.35;73.97;95485.16;4901790;29;20295;-84
2022/07/28 05:10:19;;;;;;;7.63;6.00;;;;;;;19.42;72.85;95481.38;4902998;29;20760;-85
2022/07/28 05:12:48;;;;;;;6.72;6.22;;;;;;;19.40;73.38;95488.66;4905424;28;20229;-84
2022/07/28 05:15:14;;;;;;;8.07;7.38;;;;;;;19.34;72.91;95494.81;4921640;29;20210;-84
2022/07/28 05:17:41;;;;;;;8.90;8.10;;;;;;;19.41;72.45;95492.84;4919774;29;20206;-85
2022/07/28 05:20:08;;;;;;;7.55;6.85;;;;;;;19.39;72.56;95494.09;4921840;29;20218;-85
2022/07/28 05:22:42;;;;;;;12.27;11.15;;;;;;;19.36;73.49;95500.59;4920953;28;20623;-85
2022/07/28 05:25:16;;;;;;;8.70;7.85;;;;;;;19.39;73.59;95489.69;4889093;29;20242;-85
2022/07/28 05:27:42;;;;;;;6.97;6.47;;;;;;;19.43;72.77;95488.19;4903485;29;20222;-85
2022/07/28 05:30:10;;;;;;;8.02;6.63;;;;;;;19.45;73.06;95496.56;4900309;29;20207;-85
2022/07/28 05:32:37;;;;;;;6.78;6.07;;;;;;;19.36;73.24;95497.19;4903378;29;20226;-85
2022/07/28 05:35:04;;;;;;;7.35;6.85;;;;;;;19.37;74.00;95498.78;4900289;29;20805;-85
2022/07/28 05:37:32;;;;;;;6.60;6.10;;;;;;;19.41;74.42;95503.31;4902123;29;20202;-84
2022/07/28 05:39:58;;;;;;;9.82;6.28;;;;;;;19.62;73.24;95494.03;4901742;29;20214;-85
2022/07/28 05:42:27;;;;;;;7.55;6.57;;;;;;;19.67;72.43;95504.56;4900044;29;20217;-85
2022/07/28 05:44:53;;;;;;;7.00;6.40;;;;;;;19.59;73.26;95497.13;4900219;29;20255;-85
2022/07/28 05:47:20;;;;;;;6.63;6.13;;;;;;;19.59;73.04;95502.34;4900754;29;20246;-85
2022/07/28 05:49:46;;;;;;;6.75;6.25;;;;;;;19.63;73.24;95499.00;4901275;29;20206;-85
2022/07/28 05:52:12;;;;;;;6.70;6.20;;;;;;;19.76;72.84;95495.31;4902968;29;20679;-85
2022/07/28 05:54:39;;;;;;;6.93;6.20;;;;;;;19.91;71.72;95498.19;4902075;29;20250;-85
2022/07/28 05:57:07;;;;;;;6.90;6.20;;;;;;;19.98;71.83;95500.66;4902559;29;20446;-84
2022/07/28 05:59:35;;;;;;;7.38;6.72;;;;;;;19.97;71.44;95499.06;4899224;29;20226;-85
2022/07/28 06:02:02;;;;;;;7.50;6.80;;;;;;;19.92;72.34;95498.97;4900720;29;20202;-84
2022/07/28 06:04:29;;;;;;;6.72;6.13;;;;;;;19.94;72.29;95499.53;4902431;28;20245;-85
2022/07/28 06:06:57;;;;;;;7.55;6.10;;;;;;;19.97;72.25;95502.47;4900166;29;20331;-85
2022/07/28 06:09:24;;;;;;;7.55;6.85;;;;;;;20.09;71.49;95501.59;4903138;29;20289;-84
2022/07/28 06:11:50;;;;;;;6.50;5.90;;;;;;;20.20;71.25;95498.91;4895899;29;20230;-84
2022/07/28 06:14:16;;;;;;;6.38;5.85;;;;;;;20.26;71.00;95500.56;4900712;29;20658;-85
2022/07/28 06:16:49;;;;;;;5.88;5.35;;;;;;;20.30;70.71;95501.66;4901059;29;20207;-85
2022/07/28 06:19:15;;;;;;;6.55;5.68;;;;;;;20.40;70.67;95503.66;4900096;29;20691;-84
2022/07/28 06:21:42;;;;;;;6.28;5.55;;;;;;;20.54;70.19;95499.69;4899975;29;20274;-84
2022/07/28 06:24:08;;;;;;;6.15;5.57;;;;;;;20.51;70.12;95497.56;4891361;29;20246;-84
2022/07/28 06:26:36;;;;;;;8.75;5.93;;;;;;;20.46;70.71;95501.91;4900755;29;20210;-85
2022/07/28 06:29:03;;;;;;;5.43;4.93;;;;;;;20.47;70.53;95495.66;4902211;29;20254;-85
2022/07/28 06:31:29;;;;;;;6.20;5.30;;;;;;;20.65;70.51;95498.00;4902917;29;20203;-84
2022/07/28 06:33:57;;;;;;;6.38;5.05;;;;;;;20.64;70.00;95507.66;4904041;29;20267;-85
2022/07/28 06:36:23;;;;;;;5.30;4.88;;;;;;;20.80;69.53;95502.63;4904702;29;20210;-84
2022/07/28 06:38:50;;;;;;;6.75;5.00;;;;;;;20.92;69.02;95508.56;4903603;29;20207;-85
2022/07/28 06:41:16;;;;;;;14.73;13.38;;;;;;;20.80;69.22;95500.81;4902380;29;20286;-85
2022/07/28 06:43:43;;;;;;;9.00;8.10;;;;;;;20.79;69.34;95506.28;4900941;29;20239;-85
2022/07/28 06:46:09;;;;;;;5.38;4.95;;;;;;;20.78;69.75;95495.03;4904840;29;20194;-84
2022/07/28 06:48:38;;;;;;;6.57;5.78;;;;;;;20.89;69.51;95503.81;4904203;29;20218;-85
2022/07/28 06:51:05;;;;;;;5.60;5.20;;;;;;;20.79;69.11;95503.66;4903765;29;20206;-84
2022/07/28 06:53:32;;;;;;;6.80;5.00;;;;;;;20.83;69.29;95497.72;4902527;29;20242;-85
2022/07/28 06:55:58;;;;;;;5.70;5.13;;;;;;;20.84;69.59;95501.91;4903658;29;20226;-85
2022/07/28 06:58:25;;;;;;;5.80;5.32;;;;;;;20.84;69.59;95512.38;4905186;29;20206;-85
2022/07/28 07:00:51;;;;;;;5.45;5.05;;;;;;;20.73;70.16;95502.03;4902882;29;20208;-85
2022/07/28 07:03:17;;;;;;;5.22;4.78;;;;;;;20.92;69.94;95506.75;4902714;29;20234;-85
2022/07/28 07:05:44;;;;;;;5.15;4.75;;;;;;;20.89;69.57;95501.19;4903871;29;20215;-85
2022/07/28 07:08:12;;;;;;;5.45;4.75;;;;;;;20.99;69.89;95503.91;4884583;29;20293;-85
2022/07/28 07:10:38;;;;;;;7.35;4.93;;;;;;;21.02;69.31;95500.81;4885122;29;20211;-85
2022/07/28 07:13:04;;;;;;;5.40;5.00;;;;;;;21.08;69.04;95496.44;4909407;28;20617;-84
2022/07/28 07:15:31;;;;;;;6.40;5.53;;;;;;;20.95;69.54;95493.16;4914267;29;20716;-85
2022/07/28 07:17:57;;;;;;;9.70;6.70;;;;;;;21.07;70.17;95498.28;4901601;29;20206;-85
2022/07/28 07:20:24;;;;;;;5.53;5.03;;;;;;;21.23;69.51;95492.19;4898929;29;20210;-85
2022/07/28 07:22:50;;;;;;;5.35;4.80;;;;;;;21.32;68.84;95487.31;4899151;29;20238;-85
2022/07/28 07:25:19;;;;;;;6.15;5.50;;;;;;;21.47;68.11;95479.63;4901162;29;20231;-85
2022/07/28 07:27:46;;;;;;;6.65;5.35;;;;;;;21.53;68.23;95472.59;4900958;29;20274;-85
2022/07/28 07:30:15;;;;;;;8.00;4.93;;;;;;;21.84;67.34;95484.16;4899546;29;20230;-85
2022/07/28 07:32:41;;;;;;;5.70;5.20;;;;;;;21.79;66.62;95484.09;4898861;29;20242;-84
2022/07/28 07:35:08;;;;;;;13.02;8.98;;;;;;;21.81;66.62;95474.94;4906930;29;20223;-84
2022/07/28 07:37:35;;;;;;;5.90;5.03;;;;;;;21.91;66.75;95471.63;4907813;29;20235;-84
2022/07/28 07:40:03;;;;;;;5.53;5.03;;;;;;;21.94;65.90;95471.91;4908544;29;20207;-84
2022/07/28 07:42:31;;;;;;;6.25;4.53;;;;;;;22.00;66.19;95467.53;4901891;29;20631;-84
2022/07/28 07:44:57;;;;;;;6.18;4.75;;;;;;;22.00;65.52;95478.81;4903458;29;20240;-84
2022/07/28 07:47:24;;;;;;;5.22;4.82;;;;;;;22.10;65.84;95482.56;4908359;29;20213;-83
2022/07/28 07:49:50;;;;;;;6.00;4.63;;;;;;;22.10;66.06;95475.50;4904712;29;20209;-85
2022/07/28 07:52:17;;;;;;;6.38;5.07;;;;;;;22.29;65.47;95470.63;4904674;29;20235;-84
2022/07/28 07:54:44;;;;;;;5.82;5.30;;;;;;;22.35;63.83;95474.84;4903008;29;20234;-84
2022/07/28 07:57:12;;;;;;;9.85;6.85;;;;;;;22.48;64.16;95468.38;4904531;29;20210;-85
2022/07/28 07:59:39;;;;;;;5.40;4.80;;;;;;;22.72;63.71;95474.81;4905980;29;20863;-84
2022/07/28 08:02:06;;;;;;;5.18;4.78;;;;;;;22.90;63.28;95460.50;4907332;29;20698;-84
2022/07/28 08:04:32;;;;;;;5.07;4.57;;;;;;;23.12;62.02;95465.53;4905814;29;20246;-84
2022/07/28 08:06:59;;;;;;;7.00;4.85;;;;;;;23.27;61.79;95470.88;4904868;29;20211;-84
2022/07/28 08:09:25;;;;;;;7.00;5.13;;;;;;;23.42;61.71;95466.44;4904315;29;20226;-85
2022/07/28 08:11:52;;;;;;;5.00;4.50;;;;;;;23.60;61.09;95467.81;4903919;29;20210;-84
2022/07/28 08:14:18;;;;;;;5.97;4.93;;;;;;;23.79;60.48;95464.66;4901181;29;20242;-84
2022/07/28 08:16:46;;;;;;;4.93;4.53;;;;;;;23.96;59.90;95463.34;4903136;29;20206;-84
2022/07/28 08:19:12;;;;;;;5.93;4.68;;;;;;;24.00;59.16;95466.25;4903009;29;20199;-84
2022/07/28 08:21:39;;;;;;;5.70;4.80;;;;;;;24.09;57.95;95462.81;4904153;29;20250;-85
2022/07/28 08:24:06;;;;;;;5.82;5.22;;;;;;;23.96;59.01;95465.19;4900486;29;20250;-84
2022/07/28 08:26:32;;;;;;;8.40;5.22;;;;;;;24.10;59.49;95467.03;4896663;29;20219;-84
2022/07/28 08:28:59;;;;;;;6.40;5.55;;;;;;;24.32;58.30;95460.72;4901107;29;21009;-84
2022/07/28 08:31:25;;;;;;;5.97;5.38;;;;;;;24.38;57.79;95465.72;4900310;29;20231;-84
2022/07/28 08:33:53;;;;;;;5.88;5.05;;;;;;;24.38;58.39;95457.81;4898083;29;20275;-85
2022/07/28 08:36:19;;;;;;;6.78;6.10;;;;;;;24.29;57.51;95453.34;4900452;29;20203;-84
2022/07/28 08:38:46;;;;;;;5.28;4.72;;;;;;;24.40;57.82;95454.94;4902604;29;20203;-84
2022/07/28 08:41:19;;;;;;;6.43;4.93;;;;;;;24.63;57.51;95462.22;4899149;29;20210;-84
2022/07/28 08:43:49;;;;;;;7.80;5.13;;;;;;;24.92;56.53;95461.63;4900871;29;20238;-84
2022/07/28 08:46:17;;;;;;;6.55;4.80;;;;;;;25.16;56.56;95462.59;4901791;29;20199;-85
2022/07/28 08:48:43;;;;;;;8.07;4.93;;;;;;;25.12;55.84;95465.00;4900372;29;20226;-84
2022/07/28 08:51:12;;;;;;;9.23;8.25;;;;;;;25.19;55.67;95456.00;4900438;29;20262;-85
2022/07/28 08:53:39;;;;;;;7.25;6.65;;;;;;;25.17;55.25;95466.03;4899268;29;20235;-86
2022/07/28 08:56:07;;;;;;;8.57;6.13;;;;;;;24.74;55.45;95471.69;4897917;29;20207;-86
2022/07/28 08:58:35;;;;;;;5.68;5.18;;;;;;;24.50;56.91;95469.91;4902224;29;20203;-85
2022/07/28 09:01:02;;;;;;;8.05;6.07;;;;;;;24.50;57.39;95470.69;4901589;29;20210;-85
2022/07/28 09:03:31;;;;;;;7.07;5.88;;;;;;;24.62;57.12;95460.69;4900738;29;20726;-85
2022/07/28 09:05:57;;;;;;;5.45;4.95;;;;;;;24.72;57.30;95455.38;4900790;29;20459;-85
2022/07/28 09:08:26;;;;;;;10.05;4.85;;;;;;;24.90;57.10;95459.25;4899149;29;20267;-84
2022/07/28 09:10:53;;;;;;;8.25;5.47;;;;;;;25.03;55.58;95456.06;4897140;29;20207;-85
2022/07/28 09:13:20;;;;;;;5.05;4.60;;;;;;;25.05;55.71;95467.13;4897018;29;20283;-86
2022/07/28 09:15:46;;;;;;;5.22;4.50;;;;;;;25.13;55.78;95461.28;4896558;29;20207;-86
2022/07/28 09:18:14;;;;;;;5.07;4.60;;;;;;;25.30;55.57;95465.44;4898295;29;20281;-85
2022/07/28 09:20:42;;;;;;;5.03;4.63;;;;;;;25.31;54.71;95457.25;4899915;29;20203;-85
2022/07/28 09:23:09;;;;;;;4.82;4.43;;;;;;;25.45;54.89;95452.16;4899197;29;20829;-86
2022/07/28 09:25:37;;;;;;;5.03;4.63;;;;;;;25.45;53.82;95455.56;4897787;29;20209;-86
2022/07/28 09:28:09;;;;;;;5.65;4.32;;;;;;;25.40;54.35;95460.13;4896727;29;20206;-86
2022/07/28 09:30:39;;;;;;;5.05;4.65;;;;;;;25.53;53.81;95451.59;4896140;29;20242;-86
2022/07/28 09:33:11;;;;;;;5.05;4.55;;;;;;;25.64;53.61;95461.03;4897739;29;20246;-85
2022/07/28 09:35:43;;;;;;;5.35;4.50;;;;;;;25.66;53.76;95458.13;4899386;29;20195;-86
2022/07/28 09:38:09;;;;;;;4.50;4.10;;;;;;;25.77;53.62;95452.50;4898791;29;20203;-85
2022/07/28 09:40:37;;;;;;;4.45;4.10;;;;;;;25.86;53.27;95450.06;4907077;29;20198;-85
2022/07/28 09:43:04;;;;;;;4.65;4.25;;;;;;;25.75;52.46;95451.22;4900900;29;20710;-85
2022/07/28 09:45:32;;;;;;;4.78;4.20;;;;;;;25.66;52.80;95440.44;4898941;29;20285;-85
2022/07/28 09:48:17;;;;;;;5.65;4.50;;;;;;;25.85;52.92;95445.84;4897944;29;20207;-86
2022/07/28 09:50:44;;;;;;;5.03;4.63;;;;;;;26.03;51.88;95445.16;4897174;29;20619;-85
2022/07/28 09:53:24;;;;;;;8.43;7.57;;;;;;;26.00;51.52;95440.44;4897615;29;20906;-86
2022/07/28 09:55:57;;;;;;;5.05;4.55;;;;;;;26.00;50.84;95445.72;4897738;29;20742;-85
2022/07/28 09:58:23;;;;;;;8.20;4.30;;;;;;;26.01;51.32;95443.84;4896279;29;20199;-86
2022/07/28 10:00:50;;;;;;;5.05;3.85;;;;;;;26.17;52.01;95439.25;4898842;29;20217;-86
2022/07/28 10:03:26;;;;;;;6.90;4.40;;;;;;;26.40;51.56;95435.88;4901167;28;20230;-86
2022/07/28 10:05:53;;;;;;;4.85;4.47;;;;;;;26.48;50.22;95441.34;4899153;29;20360;-85
2022/07/28 10:08:45;;;;;;;4.78;4.38;;;;;;;26.48;50.60;95441.34;4898558;29;20199;-86
2022/07/28 10:11:29;;;;;;;4.78;3.95;;;;;;;26.65;50.74;95438.25;4898335;29;20270;-86
2022/07/28 10:14:07;;;;;;;10.60;8.90;;;;;;;26.81;50.06;95433.56;4897079;29;20322;-85
2022/07/28 10:16:35;;;;;;;6.47;4.03;;;;;;;26.67;49.69;95440.63;4899871;29;20265;-86
2022/07/28 10:19:04;;;;;;;5.63;4.35;;;;;;;26.66;49.14;95436.41;4898501;29;20202;-86
2022/07/28 10:21:34;;;;;;;4.88;4.47;;;;;;;26.65;49.76;95430.34;4897112;29;20203;-86
2022/07/28 10:24:15;;;;;;;5.13;4.00;;;;;;;26.78;49.30;95428.84;4898325;29;20234;-87
2022/07/28 10:26:51;;;;;;;6.95;4.40;;;;;;;26.94;49.30;95424.97;4897125;29;20671;-86
2022/07/28 10:29:45;;;;;;;4.70;3.50;;;;;;;27.09;48.89;95419.53;4897599;29;20233;-86
2022/07/28 10:32:12;;;;;;;4.32;3.92;;;;;;;26.74;47.84;95422.59;4890020;29;20263;-86
2022/07/28 10:34:43;;;;;;;4.57;3.58;;;;;;;26.77;48.59;95429.91;4896013;29;20239;-85
2022/07/28 10:37:23;;;;;;;7.78;4.95;;;;;;;26.80;48.52;95432.78;4898489;29;20564;-85
2022/07/28 10:39:58;;;;;;;8.82;6.07;;;;;;;26.96;48.42;95430.78;4896616;29;20313;-85
2022/07/28 10:42:28;;;;;;;8.68;5.72;;;;;;;27.04;48.40;95419.59;4899650;29;20206;-86
2022/07/28 10:44:55;;;;;;;6.13;3.83;;;;;;;27.11;48.20;95420.03;4898890;29;20207;-85
2022/07/28 10:47:23;;;;;;;10.05;9.00;;;;;;;27.17;47.39;95433.94;4899016;29;20203;-86
2022/07/28 10:49:50;;;;;;;17.38;15.68;;;;;;;27.23;47.04;95429.38;4899561;29;20262;-86
2022/07/28 10:52:18;;;;;;;4.65;4.05;;;;;;;27.26;46.28;95424.31;4899039;29;20202;-85
2022/07/28 10:54:51;;;;;;;4.50;3.33;;;;;;;27.30;47.11;95427.97;4898864;29;20775;-85
2022/07/28 10:57:19;;;;;;;4.75;3.90;;;;;;;27.44;46.67;95417.44;4898541;29;20207;-85
2022/07/28 11:00:10;;;;;;;8.27;6.30;;;;;;;27.50;45.47;95421.59;4900134;29;20207;-85
2022/07/28 11:02:48;;;;;;;4.03;3.63;;;;;;;27.52;45.62;95416.78;4895865;29;20203;-86
2022/07/28 11:05:35;;;;;;;3.80;3.33;;;;;;;27.59;45.95;95425.19;4896910;29;20202;-86
2022/07/28 11:08:04;;;;;;;34.97;31.77;;;;;;;27.67;46.36;95421.13;4897268;29;20242;-85
2022/07/28 11:10:47;;;;;;;10.93;9.55;;;;;;;27.80;44.71;95415.06;4897592;29;20230;-86
2022/07/28 11:13:25;;;;;;;5.50;4.00;;;;;;;28.00;45.53;95414.75;4897645;29;20243;-83
2022/07/28 11:15:54;;;;;;;10.93;4.88;;;;;;;28.10;44.80;95416.41;4879826;29;20632;-84
2022/07/28 11:18:23;;;;;;;3.90;3.13;;;;;;;28.16;44.24;95413.41;4879260;29;20232;-83
2022/07/28 11:21:09;;;;;;;4.57;3.13;;;;;;;28.08;43.59;95419.38;4898761;29;20211;-84
2022/07/28 11:23:53;;;;;;;6.00;4.32;;;;;;;27.97;43.88;95407.38;4904821;29;20235;-84
2022/07/28 11:26:33;;;;;;;4.05;3.10;;;;;;;28.02;44.61;95409.16;4902251;29;20215;-84
2022/07/28 11:29:20;;;;;;;3.38;3.03;;;;;;;28.09;43.57;95404.28;4897454;29;20241;-85
2022/07/28 11:31:58;;;;;;;5.55;3.63;;;;;;;28.19;43.23;95404.91;4900043;29;20210;-84
2022/07/28 11:34:26;;;;;;;3.45;3.00;;;;;;;28.06;42.86;95402.22;4899337;29;20329;-84
2022/07/28 11:36:59;;;;;;;5.80;3.13;;;;;;;27.88;43.04;95403.06;4906038;29;20206;-84
2022/07/28 11:39:47;;;;;;;3.47;3.17;;;;;;;27.79;43.49;95411.66;4900710;29;20230;-84
2022/07/28 11:42:26;;;;;;;2.90;2.65;;;;;;;27.74;42.91;95401.13;4901711;29;20211;-84